createdAt,value
2019-02-26T00:02:02.707Z,85.09
2019-02-26T00:04:35.034Z,84.97
2019-02-26T00:07:06.073Z,84.47
2019-02-26T00:09:36.665Z,84.59
2019-02-26T00:12:07.265Z,84.05
2019-02-26T00:14:37.817Z,84.32
2019-02-26T00:17:10.615Z,83.41
2019-02-26T00:19:40.627Z,81.52
2019-02-26T00:22:12.039Z,81.91
2019-02-26T00:24:44.397Z,82.19
2019-02-26T00:27:15.868Z,83.62
2019-02-26T00:29:48.636Z,83.87
2019-02-26T00:32:18.786Z,83.95
2019-02-26T00:34:49.441Z,84.03
2019-02-26T00:37:22.014Z,84.71
2019-02-26T00:39:54.050Z,84.17
2019-02-26T00:42:26.408Z,84.53
2019-02-26T00:44:58.299Z,84.71
2019-02-26T00:47:31.812Z,85.06
2019-02-26T00:50:01.581Z,86.00
2019-02-26T00:52:32.658Z,86.02
2019-02-26T00:55:05.391Z,86.65
2019-02-26T00:57:38.806Z,87.01
2019-02-26T01:00:12.803Z,87.02
2019-02-26T01:02:43.494Z,86.50
2019-02-26T01:05:16.273Z,86.33
2019-02-26T01:07:49.479Z,85.71
2019-02-26T01:10:21.204Z,85.46
2019-02-26T01:12:51.740Z,85.23
2019-02-26T01:15:22.434Z,85.98
2019-02-26T01:17:55.000Z,85.93
2019-02-26T01:20:27.471Z,86.18
2019-02-26T01:22:57.561Z,88.75
2019-02-26T01:25:28.167Z,90.33
2019-02-26T01:28:00.430Z,89.72
2019-02-26T01:30:33.629Z,88.11
2019-02-26T01:33:05.567Z,87.79
2019-02-26T01:35:37.776Z,87.45
2019-02-26T01:38:08.029Z,87.18
2019-02-26T01:40:41.520Z,87.23
2019-02-26T01:43:10.832Z,86.84
2019-02-26T01:45:41.459Z,86.87
2019-02-26T01:48:16.159Z,86.60
2019-02-26T01:50:44.282Z,87.08
2019-02-26T01:53:16.927Z,87.69
2019-02-26T01:55:48.383Z,89.37
2019-02-26T01:58:19.625Z,88.44
2019-02-26T02:00:50.226Z,87.86
2019-02-26T02:03:22.690Z,86.49
2019-02-26T02:05:54.788Z,84.77
2019-02-26T02:08:25.572Z,85.48
2019-02-26T02:10:58.916Z,86.78
2019-02-26T02:13:28.761Z,86.39
2019-02-26T02:16:02.137Z,87.12
2019-02-26T02:18:32.899Z,87.58
2019-02-26T02:21:03.485Z,87.74
2019-02-26T02:23:33.991Z,88.37
2019-02-26T02:26:06.618Z,89.09
2019-02-26T02:28:36.818Z,89.01
2019-02-26T02:31:07.434Z,89.29
2019-02-26T02:33:38.046Z,89.30
2019-02-26T02:36:09.725Z,89.18
2019-02-26T02:38:40.814Z,88.86
2019-02-26T02:41:11.429Z,88.11
2019-02-26T02:43:41.985Z,88.36
2019-02-26T02:46:12.562Z,87.96
2019-02-26T02:48:43.133Z,88.14
2019-02-26T02:51:14.011Z,88.60
2019-02-26T02:53:45.736Z,89.21
2019-02-26T02:56:17.975Z,89.50
2019-02-26T02:58:51.407Z,88.71
2019-02-26T03:01:22.970Z,88.64
2019-02-26T03:03:55.870Z,88.38
2019-02-26T03:06:28.091Z,87.69
2019-02-26T03:08:57.765Z,88.19
2019-02-26T03:11:28.332Z,87.76
2019-02-26T03:13:58.837Z,86.94
2019-02-26T03:16:29.432Z,86.45
2019-02-26T03:18:59.942Z,86.33
2019-02-26T03:21:30.752Z,86.50
2019-02-26T03:24:03.508Z,86.55
2019-02-26T03:26:33.587Z,86.79
2019-02-26T03:29:04.111Z,87.24
2019-02-26T03:31:39.698Z,87.32
2019-02-26T03:34:10.609Z,87.83
2019-02-26T03:36:40.828Z,88.11
2019-02-26T03:39:11.424Z,88.04
2019-02-26T03:41:43.258Z,88.36
2019-02-26T03:44:14.374Z,89.11
2019-02-26T03:46:44.918Z,89.59
2019-02-26T03:49:15.453Z,89.41
2019-02-26T03:51:46.018Z,89.25
2019-02-26T03:54:16.592Z,89.12
2019-02-26T03:56:47.200Z,88.94
2019-02-26T03:59:17.856Z,88.40
2019-02-26T04:01:48.387Z,88.36
2019-02-26T04:04:20.719Z,88.51
2019-02-26T04:06:51.220Z,88.97
2019-02-26T04:09:22.045Z,88.62
2019-02-26T04:11:53.411Z,88.64
2019-02-26T04:14:27.725Z,88.13
2019-02-26T04:16:58.668Z,87.20
2019-02-26T04:19:29.427Z,87.23
2019-02-26T04:22:28.352Z,86.97
2019-02-26T04:25:09.236Z,87.38
2019-02-26T04:28:52.451Z,87.92
2019-02-26T04:32:18.984Z,88.05
2019-02-26T04:35:21.029Z,88.00
2019-02-26T04:38:48.300Z,88.35
2019-02-26T04:42:08.437Z,89.06
2019-02-26T04:45:35.187Z,89.98
2019-02-26T04:48:05.737Z,89.94
2019-02-26T04:50:38.614Z,90.71
2019-02-26T04:53:10.944Z,91.59
2019-02-26T04:55:41.374Z,91.80
2019-02-26T04:58:15.580Z,91.36
2019-02-26T05:00:47.365Z,91.34
2019-02-26T05:03:20.074Z,91.45
2019-02-26T05:05:53.722Z,90.60
2019-02-26T05:08:22.305Z,89.27
2019-02-26T05:10:56.845Z,88.92
2019-02-26T05:13:27.484Z,88.98
2019-02-26T05:15:58.753Z,88.61
2019-02-26T05:18:31.947Z,88.02
2019-02-26T05:21:02.747Z,88.01
2019-02-26T05:23:33.735Z,87.96
2019-02-26T05:26:05.625Z,88.16
2019-02-26T05:28:37.899Z,89.13
2019-02-26T05:31:11.258Z,90.20
2019-02-26T05:33:41.022Z,89.50
2019-02-26T05:36:14.228Z,90.72
2019-02-26T05:38:44.073Z,91.30
2019-02-26T05:41:14.531Z,90.88
2019-02-26T05:43:49.445Z,90.78
2019-02-26T05:46:19.561Z,91.16
2019-02-26T05:48:51.184Z,91.24
2019-02-26T05:51:21.680Z,90.25
2019-02-26T05:53:52.182Z,90.26
2019-02-26T05:56:22.938Z,90.80
2019-02-26T05:58:53.373Z,90.77
2019-02-26T06:01:24.958Z,90.94
2019-02-26T06:03:56.181Z,91.44
2019-02-26T06:06:26.705Z,91.39
2019-02-26T06:08:58.012Z,90.25
2019-02-26T06:11:33.205Z,89.17
2019-02-26T06:14:06.612Z,89.03
2019-02-26T06:16:34.004Z,88.77
2019-02-26T06:19:08.323Z,89.11
2019-02-26T06:21:41.773Z,89.74
2019-02-26T06:24:10.769Z,90.16
2019-02-26T06:26:43.075Z,90.36
2019-02-26T06:29:13.517Z,90.39
2019-02-26T06:31:45.080Z,90.13
2019-02-26T06:34:17.773Z,91.02
2019-02-26T06:36:49.291Z,91.23
2019-02-26T06:39:24.221Z,91.04
2019-02-26T06:41:52.863Z,90.88
2019-02-26T06:44:23.415Z,90.80
2019-02-26T06:46:53.904Z,90.53
2019-02-26T06:49:24.585Z,90.43
2019-02-26T06:51:56.506Z,90.24
2019-02-26T06:54:28.937Z,90.97
2019-02-26T06:56:59.258Z,91.01
2019-02-26T06:59:34.907Z,90.91
2019-02-26T07:02:05.382Z,90.97
2019-02-26T07:04:35.913Z,91.15
2019-02-26T07:07:09.952Z,91.33
2019-02-26T07:09:39.610Z,90.69
2019-02-26T07:12:11.055Z,90.64
2019-02-26T07:14:41.589Z,90.68
2019-02-26T07:17:12.040Z,90.78
2019-02-26T07:19:42.627Z,90.85
2019-02-26T07:22:13.522Z,90.75
2019-02-26T07:24:48.278Z,90.79
2019-02-26T07:27:17.692Z,91.15
2019-02-26T07:29:52.268Z,91.45
2019-02-26T07:32:22.227Z,91.69
2019-02-26T07:34:52.789Z,91.48
2019-02-26T07:37:23.242Z,91.17
2019-02-26T07:39:53.715Z,91.25
2019-02-26T07:42:24.236Z,91.86
2019-02-26T07:44:54.753Z,92.16
2019-02-26T07:47:26.522Z,92.13
2019-02-26T07:50:00.819Z,92.28
2019-02-26T07:52:31.256Z,91.99
2019-02-26T07:55:03.751Z,91.60
2019-02-26T07:57:34.243Z,91.11
2019-02-26T08:00:05.828Z,90.63
2019-02-26T08:02:37.291Z,90.58
2019-02-26T08:05:08.889Z,90.13
2019-02-26T08:07:39.435Z,89.80
2019-02-26T08:10:14.990Z,89.68
2019-02-26T08:12:46.676Z,89.41
2019-02-26T08:15:17.799Z,89.05
2019-02-26T08:17:50.508Z,88.82
2019-02-26T08:20:20.421Z,88.45
2019-02-26T08:22:51.605Z,88.23
2019-02-26T08:25:23.203Z,87.32
2019-02-26T08:27:55.945Z,86.61
2019-02-26T08:30:26.171Z,86.08
2019-02-26T08:32:58.912Z,85.72
2019-02-26T08:35:28.911Z,85.00
2019-02-26T08:37:59.517Z,84.43
2019-02-26T08:40:30.047Z,84.21
2019-02-26T08:43:00.563Z,83.82
2019-02-26T08:45:31.303Z,83.28
2019-02-26T08:48:01.844Z,82.88
2019-02-26T08:50:33.469Z,82.34
2019-02-26T08:53:04.599Z,82.08
2019-02-26T08:55:35.064Z,81.37
2019-02-26T08:58:07.689Z,80.66
2019-02-26T09:00:39.005Z,80.22
2019-02-26T09:03:10.851Z,79.85
2019-02-26T09:05:41.722Z,79.31
2019-02-26T09:08:14.015Z,78.46
2019-02-26T09:10:46.319Z,77.75
2019-02-26T09:13:18.580Z,76.35
2019-02-26T09:15:48.899Z,75.60
2019-02-26T09:18:20.511Z,74.89
2019-02-26T09:20:51.544Z,73.58
2019-02-26T09:23:23.540Z,73.66
2019-02-26T09:25:56.995Z,73.08
2019-02-26T09:28:27.166Z,72.13
2019-02-26T09:31:01.350Z,72.39
2019-02-26T09:33:33.002Z,72.55
2019-02-26T09:36:03.095Z,72.11
2019-02-26T09:38:33.589Z,71.05
2019-02-26T09:41:04.136Z,69.74
2019-02-26T09:43:36.186Z,69.37
2019-02-26T09:46:09.195Z,69.49
2019-02-26T09:48:41.100Z,67.58
2019-02-26T09:51:12.279Z,66.67
2019-02-26T09:53:43.394Z,66.06
2019-02-26T09:56:13.919Z,66.19
2019-02-26T09:58:46.500Z,67.52
2019-02-26T10:01:18.042Z,67.09
2019-02-26T10:03:48.642Z,64.79
2019-02-26T10:06:21.633Z,65.05
2019-02-26T10:08:53.306Z,64.21
2019-02-26T10:11:26.114Z,64.61
2019-02-26T10:13:56.929Z,64.68
2019-02-26T10:16:28.243Z,62.88
2019-02-26T10:18:59.691Z,62.24
2019-02-26T10:21:33.077Z,60.44
2019-02-26T10:24:04.506Z,60.90
2019-02-26T10:26:36.634Z,62.40
2019-02-26T10:29:07.990Z,61.78
2019-02-26T10:31:41.085Z,59.79
2019-02-26T10:34:13.326Z,58.00
2019-02-26T10:36:46.278Z,55.14
2019-02-26T10:39:15.641Z,55.40
2019-02-26T10:41:47.250Z,54.77
2019-02-26T10:44:17.754Z,56.03
2019-02-26T10:46:48.222Z,55.99
2019-02-26T10:49:18.731Z,56.16
2019-02-26T10:51:49.173Z,60.14
2019-02-26T10:54:19.663Z,60.77
2019-02-26T10:56:50.156Z,60.73
2019-02-26T10:59:20.629Z,60.85
2019-02-26T11:01:54.730Z,53.74
2019-02-26T11:04:23.400Z,52.89
2019-02-26T11:06:53.862Z,52.26
2019-02-26T11:09:28.676Z,52.52
2019-02-26T11:11:58.387Z,53.81
2019-02-26T11:14:31.200Z,54.48
2019-02-26T11:17:01.229Z,55.06
2019-02-26T11:19:33.836Z,53.15
2019-02-26T11:22:04.347Z,51.87
2019-02-26T11:24:36.208Z,52.51
2019-02-26T11:27:06.872Z,51.98
2019-02-26T11:29:38.772Z,50.94
2019-02-26T11:32:10.281Z,51.08
2019-02-26T11:34:41.751Z,51.04
2019-02-26T11:37:12.202Z,50.45
2019-02-26T11:39:42.724Z,52.46
2019-02-26T11:42:13.240Z,51.82
2019-02-26T11:44:43.712Z,49.00
2019-02-26T11:47:16.089Z,49.80
2019-02-26T11:49:46.787Z,51.15
2019-02-26T11:52:19.651Z,52.14
2019-02-26T11:54:49.572Z,52.15
2019-02-26T11:57:20.061Z,51.93
2019-02-26T11:59:50.552Z,50.11
2019-02-26T12:02:26.691Z,50.07
2019-02-26T12:04:54.900Z,50.84
2019-02-26T12:07:27.286Z,51.16
2019-02-26T12:09:58.419Z,50.69
2019-02-26T12:12:31.142Z,51.00
2019-02-26T12:15:04.087Z,51.12
2019-02-26T12:17:35.947Z,50.44
2019-02-26T12:20:09.419Z,50.52
2019-02-26T12:22:41.183Z,50.30
2019-02-26T12:25:12.909Z,50.92
2019-02-26T12:27:45.524Z,51.55
2019-02-26T12:30:20.689Z,51.02
2019-02-26T12:32:53.046Z,50.65
2019-02-26T12:35:23.524Z,49.55
2019-02-26T12:37:56.666Z,48.47
2019-02-26T12:40:26.352Z,47.61
2019-02-26T12:42:56.893Z,47.94
2019-02-26T12:45:28.549Z,47.49
2019-02-26T12:47:59.832Z,47.50
2019-02-26T12:50:32.749Z,45.85
2019-02-26T12:53:02.410Z,46.41
2019-02-26T12:55:35.856Z,46.01
2019-02-26T12:58:05.377Z,45.05
2019-02-26T13:00:38.353Z,43.40
2019-02-26T13:03:09.320Z,43.88
2019-02-26T13:05:42.196Z,44.29
2019-02-26T13:08:16.373Z,44.89
2019-02-26T13:10:47.392Z,45.07
2019-02-26T13:13:17.050Z,42.36
2019-02-26T13:15:47.472Z,41.43
2019-02-26T13:18:17.922Z,38.47
2019-02-26T13:20:52.162Z,33.29
2019-02-26T13:23:21.863Z,32.73
2019-02-26T13:25:52.511Z,31.61
2019-02-26T13:28:29.380Z,32.60
2019-02-26T13:30:58.055Z,33.16
2019-02-26T13:33:33.909Z,32.77
2019-02-26T13:36:04.006Z,32.12
2019-02-26T13:38:37.579Z,30.09
2019-02-26T13:41:25.196Z,28.49
2019-02-26T13:43:36.401Z,28.64
2019-02-26T13:46:06.932Z,30.24
2019-02-26T13:48:37.435Z,28.26
2019-02-26T13:51:07.979Z,28.49
2019-02-26T13:53:38.482Z,30.14
2019-02-26T13:56:08.994Z,30.54
2019-02-26T13:58:39.511Z,29.27
2019-02-26T14:01:09.988Z,29.71
2019-02-26T14:03:40.519Z,28.72
2019-02-26T14:06:11.074Z,29.51
2019-02-26T14:08:41.571Z,32.70
2019-02-26T14:11:12.061Z,33.31
2019-02-26T14:13:42.565Z,35.18
2019-02-26T14:16:13.039Z,38.19
2019-02-26T14:18:43.546Z,39.97
2019-02-26T14:21:14.369Z,41.05
2019-02-26T14:23:46.012Z,41.69
2019-02-26T14:26:16.500Z,42.63
2019-02-26T14:28:47.054Z,42.45
2019-02-26T14:31:17.528Z,42.33
2019-02-26T14:33:47.956Z,41.67
2019-02-26T14:36:18.491Z,42.55
2019-02-26T14:38:48.873Z,44.18
2019-02-26T14:41:19.393Z,44.33
2019-02-26T14:43:49.896Z,44.87
2019-02-26T14:46:20.332Z,45.15
2019-02-26T14:48:50.833Z,45.67
2019-02-26T14:51:21.668Z,45.17
2019-02-26T14:53:52.494Z,45.27
2019-02-26T14:56:25.021Z,46.23
2019-02-26T14:58:55.349Z,45.79
2019-02-26T15:01:25.852Z,45.86
2019-02-26T15:03:56.462Z,46.23
2019-02-26T15:06:26.994Z,46.47
2019-02-26T15:08:57.427Z,46.63
2019-02-26T15:11:27.911Z,46.86
2019-02-26T15:13:58.454Z,46.43
2019-02-26T15:16:28.921Z,46.13
2019-02-26T15:18:59.344Z,46.45
2019-02-26T15:21:29.873Z,46.71
2019-02-26T15:24:00.392Z,47.13
2019-02-26T15:26:30.887Z,47.27
2019-02-26T15:29:01.716Z,48.33
2019-02-26T15:31:32.240Z,46.95
2019-02-26T15:34:02.721Z,46.14
2019-02-26T15:36:33.489Z,45.03
2019-02-26T15:39:05.260Z,44.64
2019-02-26T15:41:35.764Z,44.58
2019-02-26T15:44:06.295Z,44.85
2019-02-26T15:46:36.794Z,45.34
2019-02-26T15:49:07.714Z,45.49
2019-02-26T15:51:38.768Z,44.91
2019-02-26T15:54:09.234Z,45.39
2019-02-26T15:56:39.742Z,45.73
2019-02-26T15:59:10.308Z,45.19
2019-02-26T16:01:40.815Z,45.17
2019-02-26T16:04:11.291Z,45.44
2019-02-26T16:06:41.797Z,46.54
2019-02-26T16:09:14.619Z,47.39
2019-02-26T16:11:44.672Z,48.14
2019-02-26T16:14:15.291Z,48.89
2019-02-26T16:16:45.793Z,49.44
2019-02-26T16:19:16.218Z,50.25
2019-02-26T16:21:46.754Z,50.76
2019-02-26T16:24:17.309Z,51.25
2019-02-26T16:26:48.024Z,52.10
2019-02-26T16:29:18.552Z,52.75
2019-02-26T16:31:49.279Z,52.75
2019-02-26T16:34:38.967Z,53.29
2019-02-26T16:37:09.545Z,53.77
2019-02-26T16:39:40.326Z,53.54
2019-02-26T16:42:11.744Z,53.63
2019-02-26T16:44:42.826Z,54.20
2019-02-26T16:47:14.637Z,53.90
2019-02-26T16:49:45.449Z,54.07
2019-02-26T16:52:15.956Z,53.98
2019-02-26T16:54:46.498Z,54.18
2019-02-26T16:57:17.048Z,54.85
2019-02-26T16:59:47.561Z,55.08
2019-02-26T17:02:18.841Z,55.31
2019-02-26T17:04:49.434Z,56.12
2019-02-26T17:07:19.963Z,57.21
2019-02-26T17:09:50.515Z,57.90
2019-02-26T17:12:21.144Z,58.90
2019-02-26T17:14:51.714Z,60.17
2019-02-26T17:17:22.286Z,60.35
2019-02-26T17:19:52.931Z,60.26
2019-02-26T17:22:23.581Z,60.84
2019-02-26T17:24:54.279Z,61.20
2019-02-26T17:27:24.835Z,61.58
2019-02-26T17:29:55.276Z,62.04
2019-02-26T17:32:25.890Z,62.97
2019-02-26T17:34:56.566Z,63.73
2019-02-26T17:37:27.096Z,64.35
2019-02-26T17:39:57.658Z,64.56
2019-02-26T17:42:28.197Z,64.78
2019-02-26T17:44:58.750Z,65.52
2019-02-26T17:47:29.354Z,65.84
2019-02-26T17:49:59.940Z,66.25
2019-02-26T17:52:30.560Z,66.92
2019-02-26T17:55:01.430Z,67.41
2019-02-26T17:57:34.549Z,67.56
2019-02-26T18:00:05.415Z,67.92
2019-02-26T18:02:35.993Z,68.98
2019-02-26T18:05:06.981Z,69.22
2019-02-26T18:07:38.571Z,69.78
2019-02-26T18:10:13.527Z,69.89
2019-02-26T18:12:44.399Z,70.90
2019-02-26T18:15:17.569Z,71.45
2019-02-26T18:17:57.387Z,71.37
2019-02-26T18:20:28.751Z,71.24
2019-02-26T18:23:00.227Z,70.98
2019-02-26T18:25:31.591Z,70.87
2019-02-26T18:28:02.102Z,70.08
2019-02-26T18:30:32.609Z,70.94
2019-02-26T18:33:03.140Z,71.27
2019-02-26T18:35:33.537Z,71.71
2019-02-26T18:38:04.130Z,72.10
2019-02-26T18:40:34.694Z,73.18
2019-02-26T18:43:05.498Z,72.49
2019-02-26T18:45:36.082Z,73.90
2019-02-26T18:48:06.681Z,74.25
2019-02-26T18:50:39.052Z,75.51
2019-02-26T18:53:11.745Z,75.41
2019-02-26T18:55:41.736Z,75.39
2019-02-26T18:58:13.722Z,75.18
2019-02-26T19:00:44.555Z,75.51
2019-02-26T19:03:15.226Z,75.64
2019-02-26T19:05:45.778Z,75.52
2019-02-26T19:08:16.227Z,75.65
2019-02-26T19:10:46.746Z,76.36
2019-02-26T19:13:17.261Z,76.51
2019-02-26T19:15:48.473Z,77.65
2019-02-26T19:18:19.170Z,78.43
2019-02-26T19:20:49.731Z,78.47
2019-02-26T19:23:20.246Z,77.67
2019-02-26T19:25:50.876Z,77.58
2019-02-26T19:28:25.849Z,77.82
2019-02-26T19:30:54.055Z,77.99
2019-02-26T19:33:24.713Z,77.84
2019-02-26T19:35:55.192Z,77.79
2019-02-26T19:38:27.664Z,77.89
2019-02-26T19:41:00.014Z,77.98
2019-02-26T19:43:30.670Z,77.57
2019-02-26T19:46:02.271Z,77.46
2019-02-26T19:48:34.003Z,77.94
2019-02-26T19:51:04.722Z,78.94
2019-02-26T19:53:35.315Z,78.82
2019-02-26T19:56:05.981Z,79.93
2019-02-26T19:58:40.581Z,80.01
2019-02-26T20:01:09.230Z,80.22
2019-02-26T20:03:40.858Z,80.10
2019-02-26T20:06:11.400Z,80.04
2019-02-26T20:08:42.035Z,80.13
2019-02-26T20:11:12.594Z,80.31
2019-02-26T20:13:43.109Z,80.53
2019-02-26T20:16:14.058Z,81.06
2019-02-26T20:18:44.607Z,81.09
2019-02-26T20:21:18.825Z,81.30
2019-02-26T20:23:47.443Z,81.33
2019-02-26T20:26:18.090Z,81.52
2019-02-26T20:28:48.591Z,81.54
2019-02-26T20:31:21.937Z,81.50
2019-02-26T20:33:52.190Z,82.06
2019-02-26T20:36:22.734Z,81.93
2019-02-26T20:38:53.300Z,81.64
2019-02-26T20:41:23.895Z,81.96
2019-02-26T20:43:54.410Z,80.63
2019-02-26T20:46:25.674Z,80.63
2019-02-26T20:48:56.276Z,80.39
2019-02-26T20:51:27.627Z,80.32
2019-02-26T20:53:58.422Z,80.68
2019-02-26T20:56:30.972Z,81.23
2019-02-26T20:59:01.445Z,81.33
2019-02-26T21:01:32.524Z,81.60
2019-02-26T21:04:03.717Z,82.78
2019-02-26T21:06:34.324Z,83.12
2019-02-26T21:09:07.187Z,82.99
2019-02-26T21:11:38.407Z,82.30
2019-02-26T21:14:09.113Z,82.30
2019-02-26T21:16:39.872Z,82.72
2019-02-26T21:19:10.501Z,82.53
2019-02-26T21:21:41.042Z,82.22
2019-02-26T21:24:11.791Z,81.50
2019-02-26T21:26:42.294Z,81.35
2019-02-26T21:29:13.672Z,81.86
2019-02-26T21:31:44.305Z,82.63
2019-02-26T21:34:14.936Z,82.57
2019-02-26T21:36:45.518Z,82.78
2019-02-26T21:39:16.176Z,82.60
2019-02-26T21:41:46.782Z,82.23
2019-02-26T21:44:17.387Z,82.53
2019-02-26T21:46:47.951Z,82.90
2019-02-26T21:49:18.643Z,82.66
2019-02-26T21:51:49.504Z,84.14
2019-02-26T21:54:24.518Z,84.02
2019-02-26T21:56:54.571Z,84.52
2019-02-26T21:59:25.706Z,85.00
2019-02-26T22:01:56.697Z,85.42
2019-02-26T22:05:13.500Z,86.74
2019-02-26T22:07:52.105Z,86.06
2019-02-26T22:10:26.472Z,85.58
2019-02-26T22:16:36.601Z,85.30
2019-02-26T22:19:13.205Z,85.38
2019-02-26T22:21:52.748Z,85.54
2019-02-26T22:24:23.849Z,84.88
2019-02-26T22:26:59.351Z,84.66
2019-02-26T22:29:27.067Z,84.79
2019-02-26T22:32:02.551Z,84.66
2019-02-26T22:34:33.275Z,84.84
2019-02-26T22:37:07.032Z,85.61
2019-02-26T22:39:36.230Z,85.01
2019-02-26T22:42:08.125Z,85.16
2019-02-26T22:44:39.225Z,84.83
2019-02-26T22:47:09.879Z,84.42
2019-02-26T22:49:40.438Z,84.42
2019-02-26T22:52:11.047Z,84.30
2019-02-26T22:54:43.510Z,84.17
2019-02-26T22:57:13.971Z,84.05
2019-02-26T22:59:44.544Z,84.02
2019-02-26T23:02:15.275Z,84.10
2019-02-26T23:04:45.907Z,83.78
2019-02-26T23:07:16.538Z,83.77
2019-02-26T23:09:47.345Z,83.80
2019-02-26T23:12:19.688Z,83.35
2019-02-26T23:14:50.463Z,83.36
2019-02-26T23:17:24.662Z,83.37
2019-02-26T23:19:53.588Z,83.20
2019-02-26T23:22:24.215Z,82.82
2019-02-26T23:24:54.795Z,83.35
2019-02-26T23:27:26.246Z,83.13
2019-02-26T23:29:56.865Z,83.35
2019-02-26T23:32:28.540Z,84.72
2019-02-26T23:35:08.898Z,84.33
2019-02-26T23:37:39.565Z,85.13
2019-02-26T23:40:11.380Z,85.11
2019-02-26T23:42:41.980Z,85.31
2019-02-26T23:45:12.994Z,85.52
2019-02-26T23:47:44.155Z,85.57
2019-02-26T23:50:14.758Z,85.24
2019-02-26T23:52:45.370Z,85.29
2019-02-26T23:55:15.933Z,86.00
2019-02-26T23:57:46.565Z,86.43
